createdAt,value
2023-03-05T00:01:30.287Z,13.56
2023-03-05T00:03:57.939Z,13.54
2023-03-05T00:06:28.270Z,13.62
2023-03-05T00:08:58.557Z,13.63
2023-03-05T00:11:30.375Z,13.62
2023-03-05T00:13:59.051Z,13.42
2023-03-05T00:16:27.348Z,13.36
2023-03-05T00:18:56.527Z,13.35
2023-03-05T00:21:23.600Z,13.45
2023-03-05T00:23:52.212Z,13.51
2023-03-05T00:26:21.224Z,13.41
2023-03-05T00:28:51.814Z,13.39
2023-03-05T00:31:26.000Z,13.21
2023-03-05T00:33:55.712Z,13.11
2023-03-05T00:36:24.697Z,13.15
2023-03-05T00:38:52.692Z,13.08
2023-03-05T00:41:20.748Z,13.25
2023-03-05T00:43:48.695Z,13.16
2023-03-05T00:46:16.333Z,13.04
2023-03-05T00:48:43.681Z,13.04
2023-03-05T00:51:10.937Z,13.20
2023-03-05T00:53:38.182Z,13.21
2023-03-05T00:56:05.798Z,13.16
2023-03-05T00:58:33.145Z,13.33
2023-03-05T01:01:01.721Z,13.57
2023-03-05T01:03:30.670Z,13.42
2023-03-05T01:05:57.934Z,13.50
2023-03-05T01:08:26.129Z,13.27
2023-03-05T01:10:53.288Z,13.20
2023-03-05T01:13:20.565Z,13.30
2023-03-05T01:15:48.884Z,13.28
2023-03-05T01:18:17.813Z,13.37
2023-03-05T01:20:45.101Z,13.37
2023-03-05T01:23:12.726Z,13.58
2023-03-05T01:25:40.448Z,13.36
2023-03-05T01:28:08.080Z,13.68
2023-03-05T01:30:35.645Z,13.75
2023-03-05T01:33:02.818Z,13.89
2023-03-05T01:35:30.327Z,13.98
2023-03-05T01:37:57.550Z,13.94
2023-03-05T01:40:28.999Z,13.97
2023-03-05T01:43:22.515Z,13.98
2023-03-05T01:46:24.233Z,13.94
2023-03-05T01:48:56.469Z,13.62
2023-03-05T01:51:27.907Z,13.56
2023-03-05T01:53:57.471Z,13.60
2023-03-05T01:56:27.112Z,13.65
2023-03-05T01:58:58.052Z,13.96
2023-03-05T02:01:25.337Z,14.10
2023-03-05T02:03:53.064Z,14.08
2023-03-05T02:06:20.301Z,14.01
2023-03-05T02:08:47.655Z,13.76
2023-03-05T02:11:15.502Z,13.81
2023-03-05T02:13:44.995Z,13.79
2023-03-05T02:16:12.446Z,13.64
2023-03-05T02:18:39.752Z,13.73
2023-03-05T02:21:08.544Z,13.68
2023-03-05T02:23:38.089Z,13.63
2023-03-05T02:26:07.817Z,13.57
2023-03-05T02:28:44.785Z,13.73
2023-03-05T02:31:23.809Z,13.91
2023-03-05T02:33:52.935Z,13.86
2023-03-05T02:36:20.999Z,14.00
2023-03-05T02:38:48.968Z,14.01
2023-03-05T02:41:16.756Z,14.17
2023-03-05T02:43:44.503Z,14.06
2023-03-05T02:46:12.126Z,14.11
2023-03-05T02:48:40.920Z,14.21
2023-03-05T02:51:13.101Z,14.21
2023-03-05T02:53:42.370Z,14.25
2023-03-05T02:56:10.653Z,14.24
2023-03-05T02:58:37.821Z,14.20
2023-03-05T03:01:05.306Z,14.31
2023-03-05T03:03:32.849Z,13.85
2023-03-05T03:06:00.015Z,13.96
2023-03-05T03:08:27.475Z,14.08
2023-03-05T03:10:56.627Z,13.93
2023-03-05T03:13:25.299Z,13.69
2023-03-05T03:16:02.947Z,13.71
2023-03-05T03:18:30.338Z,13.68
2023-03-05T03:20:57.562Z,13.62
2023-03-05T03:23:24.937Z,13.44
2023-03-05T03:25:52.785Z,13.52
2023-03-05T03:28:23.086Z,13.64
2023-03-05T03:30:50.761Z,13.64
2023-03-05T03:33:18.718Z,13.59
2023-03-05T03:35:47.010Z,13.54
2023-03-05T03:38:14.424Z,13.29
2023-03-05T03:40:42.296Z,13.05
2023-03-05T03:43:10.181Z,13.15
2023-03-05T03:45:42.030Z,13.34
2023-03-05T03:48:10.782Z,13.41
2023-03-05T03:50:43.702Z,13.73
2023-03-05T03:53:14.513Z,13.84
2023-03-05T03:55:46.733Z,13.99
2023-03-05T03:58:14.051Z,14.01
2023-03-05T04:00:42.013Z,14.01
2023-03-05T04:03:09.461Z,14.03
2023-03-05T04:05:36.569Z,14.16
2023-03-05T04:08:04.434Z,13.88
2023-03-05T04:10:31.678Z,13.93
2023-03-05T04:12:58.834Z,14.03
2023-03-05T04:15:25.936Z,14.18
2023-03-05T04:17:53.421Z,14.12
2023-03-05T04:20:21.375Z,14.10
2023-03-05T04:22:48.541Z,14.22
2023-03-05T04:25:16.028Z,14.08
2023-03-05T04:27:43.107Z,14.11
2023-03-05T04:30:14.690Z,14.05
2023-03-05T04:32:42.038Z,14.01
2023-03-05T04:35:09.872Z,14.06
2023-03-05T04:37:37.081Z,13.64
2023-03-05T04:40:05.491Z,13.77
2023-03-05T04:42:32.980Z,13.70
2023-03-05T04:45:00.498Z,13.58
2023-03-05T04:47:29.213Z,13.36
2023-03-05T04:49:57.163Z,13.40
2023-03-05T04:52:24.427Z,13.36
2023-03-05T04:54:51.648Z,13.42
2023-03-05T04:57:18.910Z,13.41
2023-03-05T04:59:46.114Z,13.33
2023-03-05T05:02:15.038Z,13.24
2023-03-05T05:04:45.219Z,13.21
2023-03-05T05:07:13.033Z,13.22
2023-03-05T05:09:41.806Z,13.16
2023-03-05T05:12:10.638Z,12.96
2023-03-05T05:14:37.906Z,13.07
2023-03-05T05:17:05.394Z,13.05
2023-03-05T05:19:34.465Z,12.99
2023-03-05T05:22:02.555Z,12.86
2023-03-05T05:24:29.700Z,12.90
2023-03-05T05:26:57.648Z,13.08
2023-03-05T05:29:24.806Z,13.14
2023-03-05T05:31:53.368Z,13.02
2023-03-05T05:34:20.765Z,12.93
2023-03-05T05:36:47.881Z,13.03
2023-03-05T05:39:15.203Z,12.95
2023-03-05T05:41:42.309Z,13.09
2023-03-05T05:44:09.600Z,13.15
2023-03-05T05:46:37.389Z,13.01
2023-03-05T05:49:04.563Z,13.14
2023-03-05T05:51:32.019Z,13.21
2023-03-05T05:53:59.179Z,13.01
2023-03-05T05:56:26.414Z,12.91
2023-03-05T05:58:54.407Z,13.03
2023-03-05T06:01:25.716Z,13.14
2023-03-05T06:03:53.119Z,13.28
2023-03-05T06:06:22.284Z,13.27
2023-03-05T06:08:49.865Z,13.28
2023-03-05T06:11:19.317Z,13.22
2023-03-05T06:13:47.722Z,13.12
2023-03-05T06:16:18.067Z,13.18
2023-03-05T06:18:45.514Z,13.21
2023-03-05T06:21:16.704Z,13.31
2023-03-05T06:23:45.765Z,13.35
2023-03-05T06:26:15.140Z,13.42
2023-03-05T06:28:42.340Z,13.39
2023-03-05T06:31:26.660Z,13.37
2023-03-05T06:34:01.377Z,13.23
2023-03-05T06:36:28.690Z,13.28
2023-03-05T06:38:56.950Z,13.18
2023-03-05T06:41:30.266Z,13.21
2023-03-05T06:44:00.332Z,13.00
2023-03-05T06:46:29.992Z,13.02
2023-03-05T06:48:59.220Z,13.11
2023-03-05T06:51:32.914Z,13.15
2023-03-05T06:54:03.268Z,13.22
2023-03-05T06:56:30.808Z,13.49
2023-03-05T06:58:58.090Z,13.51
2023-03-05T07:01:25.400Z,13.34
2023-03-05T07:03:54.994Z,13.43
2023-03-05T07:06:23.177Z,13.58
2023-03-05T07:08:50.833Z,13.47
2023-03-05T07:11:20.102Z,13.40
2023-03-05T07:13:48.399Z,13.31
2023-03-05T07:16:20.333Z,12.97
2023-03-05T07:18:47.588Z,12.79
2023-03-05T07:21:24.580Z,12.84
2023-03-05T07:23:54.395Z,12.76
2023-03-05T07:26:23.052Z,12.86
2023-03-05T07:28:53.117Z,12.82
2023-03-05T07:31:23.147Z,12.93
2023-03-05T07:33:50.825Z,12.66
2023-03-05T07:36:18.039Z,12.50
2023-03-05T07:39:22.053Z,12.51
2023-03-05T07:41:51.478Z,12.33
2023-03-05T07:44:46.681Z,12.03
2023-03-05T07:47:14.165Z,12.30
2023-03-05T07:49:41.841Z,12.39
2023-03-05T07:52:09.839Z,12.47
2023-03-05T07:54:39.373Z,12.55
2023-03-05T07:57:07.778Z,12.57
2023-03-05T07:59:35.737Z,12.50
2023-03-05T08:02:02.927Z,12.50
2023-03-05T08:04:32.029Z,12.63
2023-03-05T08:07:00.323Z,12.82
2023-03-05T08:09:28.507Z,12.85
2023-03-05T08:11:55.660Z,12.93
2023-03-05T08:14:23.256Z,12.93
2023-03-05T08:16:52.369Z,12.75
2023-03-05T08:19:21.495Z,12.75
2023-03-05T08:21:48.643Z,12.78
2023-03-05T08:24:15.916Z,12.78
2023-03-05T08:26:43.749Z,12.64
2023-03-05T08:29:11.133Z,12.53
2023-03-05T08:31:39.209Z,12.78
2023-03-05T08:34:06.818Z,12.87
2023-03-05T08:36:34.246Z,12.80
2023-03-05T08:39:01.494Z,12.94
2023-03-05T08:41:29.191Z,13.03
2023-03-05T08:43:56.349Z,13.01
2023-03-05T08:46:24.188Z,12.86
2023-03-05T08:48:51.700Z,12.64
2023-03-05T08:51:21.769Z,12.60
2023-03-05T08:53:49.415Z,12.52
2023-03-05T08:56:16.622Z,12.44
2023-03-05T08:58:44.708Z,12.48
2023-03-05T09:01:12.724Z,12.49
2023-03-05T09:03:40.148Z,12.39
2023-03-05T09:06:09.801Z,12.46
2023-03-05T09:08:37.453Z,12.25
2023-03-05T09:11:06.832Z,12.35
2023-03-05T09:13:35.067Z,12.24
2023-03-05T09:16:05.998Z,12.39
2023-03-05T09:18:33.829Z,12.29
2023-03-05T09:21:05.209Z,12.53
2023-03-05T09:23:32.371Z,12.57
2023-03-05T09:26:00.286Z,12.02
2023-03-05T09:28:27.629Z,12.12
2023-03-05T09:30:55.327Z,12.23
2023-03-05T09:33:22.422Z,12.19
2023-03-05T09:35:49.740Z,12.14
2023-03-05T09:38:19.042Z,12.07
2023-03-05T09:40:52.703Z,12.08
2023-03-05T09:43:30.807Z,12.35
2023-03-05T09:46:01.779Z,12.44
2023-03-05T09:48:53.428Z,12.70
2023-03-05T09:51:29.482Z,12.54
2023-03-05T09:54:03.486Z,12.63
2023-03-05T09:56:36.173Z,12.51
2023-03-05T09:59:36.107Z,12.67
2023-03-05T10:02:17.998Z,12.49
2023-03-05T10:05:08.139Z,12.31
2023-03-05T10:07:42.203Z,12.23
2023-03-05T10:10:24.792Z,12.31
2023-03-05T10:12:57.701Z,12.50
2023-03-05T10:16:11.386Z,12.65
2023-03-05T10:18:51.987Z,12.32
2023-03-05T10:21:30.846Z,12.34
2023-03-05T10:24:45.566Z,12.51
2023-03-05T10:27:20.972Z,12.68
2023-03-05T10:30:07.390Z,12.69
2023-03-05T10:32:58.735Z,12.80
2023-03-05T10:35:50.778Z,12.81
2023-03-05T10:38:29.238Z,12.80
2023-03-05T10:40:56.627Z,12.80
2023-03-05T10:43:45.733Z,12.97
2023-03-05T10:46:22.628Z,12.89
2023-03-05T10:49:16.060Z,13.09
2023-03-05T10:51:55.431Z,13.13
2023-03-05T10:54:34.008Z,13.07
2023-03-05T10:57:10.639Z,12.83
2023-03-05T10:59:37.918Z,12.68
2023-03-05T11:02:08.955Z,12.41
2023-03-05T11:04:39.069Z,12.30
2023-03-05T11:07:15.347Z,12.42
2023-03-05T11:09:43.976Z,12.12
2023-03-05T11:12:20.514Z,12.30
2023-03-05T11:15:05.682Z,12.55
2023-03-05T11:17:38.074Z,12.79
2023-03-05T11:20:20.400Z,12.98
2023-03-05T11:23:13.324Z,13.20
2023-03-05T11:26:03.627Z,13.24
2023-03-05T11:28:40.178Z,12.81
2023-03-05T11:31:16.715Z,12.75
2023-03-05T11:34:04.231Z,12.90
2023-03-05T11:36:43.130Z,12.72
2023-03-05T11:39:18.793Z,12.72
2023-03-05T11:41:58.045Z,12.92
2023-03-05T11:44:42.454Z,13.01
2023-03-05T11:47:26.213Z,13.04
2023-03-05T11:50:02.404Z,13.03
2023-03-05T11:52:37.390Z,12.85
2023-03-05T11:55:15.766Z,12.64
2023-03-05T11:57:55.934Z,12.48
2023-03-05T12:00:30.191Z,12.39
2023-03-05T12:03:04.431Z,12.54
2023-03-05T12:05:32.690Z,12.45
2023-03-05T12:08:02.162Z,12.43
2023-03-05T12:10:29.494Z,12.38
2023-03-05T12:12:59.956Z,12.46
2023-03-05T12:15:47.767Z,12.62
2023-03-05T12:18:35.946Z,12.57
2023-03-05T12:21:26.627Z,12.56
2023-03-05T12:24:01.825Z,12.31
2023-03-05T12:26:53.760Z,12.40
2023-03-05T12:29:39.994Z,12.30
2023-03-05T12:32:23.058Z,12.15
2023-03-05T12:34:57.551Z,12.10
2023-03-05T12:37:24.545Z,12.34
2023-03-05T12:40:07.416Z,12.48
2023-03-05T12:42:34.595Z,12.42
2023-03-05T12:45:15.160Z,12.52
2023-03-05T12:47:48.171Z,12.35
2023-03-05T12:50:30.535Z,12.28
2023-03-05T12:53:19.302Z,12.18
2023-03-05T12:56:13.992Z,12.19
2023-03-05T12:58:47.703Z,12.16
2023-03-05T13:01:40.717Z,12.04
2023-03-05T13:04:33.166Z,12.05
2023-03-05T13:07:15.369Z,12.18
2023-03-05T13:09:52.553Z,12.09
2023-03-05T13:12:20.742Z,11.90
2023-03-05T13:14:59.784Z,12.21
2023-03-05T13:17:41.665Z,12.38
2023-03-05T13:20:26.717Z,12.48
2023-03-05T13:23:13.084Z,12.55
2023-03-05T13:25:40.316Z,12.38
2023-03-05T13:28:13.145Z,12.66
2023-03-05T13:30:45.899Z,12.89
2023-03-05T13:33:19.199Z,12.62
2023-03-05T13:35:47.563Z,12.70
2023-03-05T13:38:27.054Z,12.74
2023-03-05T13:41:08.472Z,12.63
2023-03-05T13:43:43.862Z,12.65
2023-03-05T13:46:11.317Z,12.02
2023-03-05T13:48:38.645Z,12.13
2023-03-05T13:51:10.046Z,12.08
2023-03-05T13:53:37.361Z,12.19
2023-03-05T13:56:07.537Z,12.21
2023-03-05T13:58:56.978Z,12.46
2023-03-05T14:01:29.326Z,12.39
2023-03-05T14:04:03.814Z,12.31
2023-03-05T14:06:41.309Z,12.28
2023-03-05T14:09:28.896Z,12.25
2023-03-05T14:12:02.021Z,12.33
2023-03-05T14:14:32.023Z,12.38
2023-03-05T14:17:22.320Z,12.32
2023-03-05T14:19:50.226Z,12.00
2023-03-05T14:22:36.090Z,11.87
2023-03-05T14:25:05.022Z,11.97
2023-03-05T14:27:35.471Z,12.19
2023-03-05T14:30:23.099Z,12.34
2023-03-05T14:32:53.645Z,12.36
2023-03-05T14:35:24.110Z,12.39
2023-03-05T14:37:54.191Z,12.50
2023-03-05T14:40:27.316Z,12.34
2023-03-05T14:43:01.306Z,12.46
2023-03-05T14:45:40.008Z,12.54
2023-03-05T14:48:09.089Z,12.37
2023-03-05T14:50:44.937Z,12.27
2023-03-05T14:53:28.742Z,12.38
2023-03-05T14:55:58.836Z,12.07
2023-03-05T14:58:29.859Z,12.23
2023-03-05T15:00:57.262Z,12.24
2023-03-05T15:03:25.829Z,12.23
2023-03-05T15:05:56.670Z,12.16
2023-03-05T15:08:26.773Z,12.19
2023-03-05T15:10:54.385Z,12.28
2023-03-05T15:13:22.073Z,12.25
2023-03-05T15:15:51.015Z,12.24
2023-03-05T15:18:20.780Z,11.90
2023-03-05T15:20:49.859Z,11.82
2023-03-05T15:23:17.178Z,11.93
2023-03-05T15:25:44.883Z,12.09
2023-03-05T15:28:12.414Z,12.23
2023-03-05T15:30:43.806Z,12.19
2023-03-05T15:33:20.953Z,11.98
2023-03-05T15:35:49.071Z,12.13
2023-03-05T15:38:17.656Z,11.67
2023-03-05T15:40:45.130Z,11.82
2023-03-05T15:43:12.261Z,11.82
2023-03-05T15:45:39.650Z,11.82
2023-03-05T15:48:07.668Z,11.78
2023-03-05T15:50:34.924Z,11.80
2023-03-05T15:53:04.686Z,11.63
2023-03-05T15:55:42.002Z,11.56
2023-03-05T15:58:09.955Z,11.51
2023-03-05T16:00:37.464Z,11.33
2023-03-05T16:03:04.800Z,11.22
2023-03-05T16:05:34.869Z,11.17
2023-03-05T16:08:02.391Z,11.23
2023-03-05T16:10:30.601Z,11.12
2023-03-05T16:13:11.835Z,10.84
2023-03-05T16:15:41.227Z,10.65
2023-03-05T16:18:12.438Z,10.83
2023-03-05T16:20:44.447Z,10.86
2023-03-05T16:23:14.868Z,10.85
2023-03-05T16:25:42.016Z,10.83
2023-03-05T16:28:10.728Z,11.03
2023-03-05T16:30:38.330Z,11.01
2023-03-05T16:33:06.270Z,10.72
2023-03-05T16:35:33.570Z,10.81
2023-03-05T16:38:01.170Z,10.84
2023-03-05T16:40:44.473Z,11.06
2023-03-05T16:43:18.763Z,11.19
2023-03-05T16:45:46.764Z,11.14
2023-03-05T16:48:14.090Z,11.26
2023-03-05T16:50:41.203Z,11.08
2023-03-05T16:53:08.450Z,11.09
2023-03-05T16:55:37.808Z,10.80
2023-03-05T16:58:05.135Z,10.76
2023-03-05T17:00:32.508Z,10.75
2023-03-05T17:03:00.833Z,10.32
2023-03-05T17:05:29.935Z,10.28
2023-03-05T17:07:57.534Z,10.05
2023-03-05T17:10:24.710Z,10.21
2023-03-05T17:12:53.135Z,9.98
2023-03-05T17:15:20.443Z,10.05
2023-03-05T17:17:48.911Z,10.19
2023-03-05T17:20:16.452Z,10.33
2023-03-05T17:22:43.736Z,10.65
2023-03-05T17:25:11.491Z,10.70
2023-03-05T17:27:40.001Z,10.53
2023-03-05T17:30:08.568Z,10.53
2023-03-05T17:32:36.234Z,10.54
2023-03-05T17:35:05.448Z,10.70
2023-03-05T17:37:33.155Z,10.34
2023-03-05T17:40:00.741Z,9.79
2023-03-05T17:42:28.937Z,9.54
2023-03-05T17:44:56.134Z,9.36
2023-03-05T17:47:23.580Z,9.03
2023-03-05T17:49:51.481Z,8.76
2023-03-05T17:52:21.100Z,8.49
2023-03-05T17:54:50.474Z,8.23
2023-03-05T17:57:18.366Z,8.06
2023-03-05T17:59:45.738Z,7.71
2023-03-05T18:02:13.380Z,7.60
2023-03-05T18:04:44.451Z,7.26
2023-03-05T18:07:11.746Z,7.28
2023-03-05T18:09:41.380Z,7.27
2023-03-05T18:12:08.614Z,7.16
2023-03-05T18:14:36.221Z,7.01
2023-03-05T18:17:03.669Z,7.04
2023-03-05T18:19:30.972Z,7.16
2023-03-05T18:22:00.555Z,7.02
2023-03-05T18:24:27.825Z,6.82
2023-03-05T18:26:54.864Z,6.68
2023-03-05T18:29:22.120Z,6.74
2023-03-05T18:31:51.763Z,6.69
2023-03-05T18:34:22.407Z,6.51
2023-03-05T18:36:49.821Z,6.56
2023-03-05T18:39:18.738Z,6.59
2023-03-05T18:41:47.882Z,6.57
2023-03-05T18:44:15.395Z,6.76
2023-03-05T18:46:42.504Z,6.84
2023-03-05T18:49:12.815Z,6.90
2023-03-05T18:51:41.767Z,7.20
2023-03-05T18:54:10.730Z,7.43
2023-03-05T18:56:40.916Z,7.35
2023-03-05T18:59:08.158Z,7.43
2023-03-05T19:01:38.089Z,7.18
2023-03-05T19:04:05.433Z,7.20
2023-03-05T19:06:34.722Z,7.11
2023-03-05T19:09:37.607Z,7.08
2023-03-05T19:12:15.592Z,6.97
2023-03-05T19:14:43.165Z,7.16
2023-03-05T19:17:10.309Z,6.93
2023-03-05T19:19:55.835Z,6.94
2023-03-05T19:22:23.375Z,7.00
2023-03-05T19:24:51.019Z,6.96
2023-03-05T19:27:18.922Z,6.99
2023-03-05T19:29:46.367Z,6.92
2023-03-05T19:32:16.129Z,6.89
2023-03-05T19:34:45.140Z,6.85
2023-03-05T19:37:13.165Z,6.75
2023-03-05T19:39:41.241Z,6.71
2023-03-05T19:42:08.796Z,6.74
2023-03-05T19:44:36.358Z,6.79
2023-03-05T19:47:03.996Z,6.87
2023-03-05T19:49:31.579Z,6.81
2023-03-05T19:51:58.726Z,6.75
2023-03-05T19:54:26.713Z,6.54
2023-03-05T19:56:55.897Z,6.31
2023-03-05T19:59:23.554Z,6.12
2023-03-05T20:01:51.236Z,5.74
2023-03-05T20:04:21.894Z,5.61
2023-03-05T20:06:49.494Z,5.33
2023-03-05T20:09:19.586Z,5.08
2023-03-05T20:11:47.586Z,4.96
2023-03-05T20:14:15.328Z,4.96
2023-03-05T20:16:47.233Z,4.97
2023-03-05T20:19:19.295Z,4.77
2023-03-05T20:21:46.619Z,4.58
2023-03-05T20:24:19.298Z,4.45
2023-03-05T20:26:50.844Z,4.39
2023-03-05T20:29:18.882Z,4.21
2023-03-05T20:31:47.506Z,4.06
2023-03-05T20:34:17.452Z,4.03
2023-03-05T20:36:44.926Z,3.98
2023-03-05T20:39:12.325Z,4.03
2023-03-05T20:41:40.339Z,3.98
2023-03-05T20:44:08.780Z,3.94
2023-03-05T20:46:49.952Z,4.06
2023-03-05T20:49:17.532Z,4.10
2023-03-05T20:51:49.405Z,4.05
2023-03-05T20:54:17.221Z,4.03
2023-03-05T20:56:44.877Z,4.02
2023-03-05T20:59:12.222Z,4.05
2023-03-05T21:01:41.154Z,4.13
2023-03-05T21:04:08.343Z,4.20
2023-03-05T21:06:37.001Z,4.08
2023-03-05T21:09:04.377Z,4.13
2023-03-05T21:11:32.416Z,3.98
2023-03-05T21:13:59.572Z,4.03
2023-03-05T21:16:27.635Z,4.13
2023-03-05T21:18:57.353Z,4.08
2023-03-05T21:21:24.988Z,4.04
2023-03-05T21:23:52.638Z,4.02
2023-03-05T21:26:22.376Z,3.80
2023-03-05T21:28:49.591Z,4.03
2023-03-05T21:31:22.945Z,3.94
2023-03-05T21:33:50.392Z,3.91
2023-03-05T21:36:18.925Z,4.02
2023-03-05T21:38:47.172Z,4.05
2023-03-05T21:41:15.907Z,4.00
2023-03-05T21:43:43.399Z,4.04
2023-03-05T21:46:11.433Z,4.05
2023-03-05T21:48:38.713Z,4.06
2023-03-05T21:51:51.329Z,4.18
2023-03-05T21:54:23.745Z,4.04
2023-03-05T21:56:50.879Z,3.94
2023-03-05T21:59:18.568Z,4.05
2023-03-05T22:01:45.655Z,4.10
2023-03-05T22:04:12.934Z,4.13
2023-03-05T22:06:40.111Z,4.13
2023-03-05T22:09:07.202Z,4.19
2023-03-05T22:11:34.586Z,4.25
2023-03-05T22:14:01.912Z,4.23
2023-03-05T22:16:29.342Z,4.20
2023-03-05T22:18:56.531Z,4.16
2023-03-05T22:21:27.597Z,4.11
2023-03-05T22:23:58.817Z,3.96
2023-03-05T22:26:33.473Z,4.10
2023-03-05T22:29:01.994Z,4.13
2023-03-05T22:31:30.576Z,4.10
2023-03-05T22:33:58.378Z,4.09
2023-03-05T22:36:26.175Z,4.05
2023-03-05T22:38:53.467Z,3.97
2023-03-05T22:41:21.459Z,4.18
2023-03-05T22:43:50.138Z,4.11
2023-03-05T22:46:20.867Z,4.09
2023-03-05T22:48:49.257Z,4.16
2023-03-05T22:51:17.372Z,3.92
2023-03-05T22:53:45.593Z,3.75
2023-03-05T22:56:17.030Z,3.73
2023-03-05T22:58:46.007Z,3.69
2023-03-05T23:01:21.746Z,3.63
2023-03-05T23:04:33.866Z,3.57
2023-03-05T23:07:03.778Z,3.57
2023-03-05T23:09:31.098Z,3.60
2023-03-05T23:11:58.618Z,3.45
2023-03-05T23:14:25.810Z,3.56
2023-03-05T23:16:53.142Z,3.44
2023-03-05T23:19:20.318Z,3.46
2023-03-05T23:21:47.513Z,3.41
2023-03-05T23:24:14.682Z,3.38
2023-03-05T23:26:41.885Z,3.26
2023-03-05T23:29:09.022Z,3.31
2023-03-05T23:31:36.218Z,3.31
2023-03-05T23:34:03.445Z,3.32
2023-03-05T23:36:30.692Z,3.28
2023-03-05T23:38:58.515Z,3.21
2023-03-05T23:41:25.820Z,3.25
2023-03-05T23:43:53.035Z,3.14
2023-03-05T23:46:20.407Z,3.10
2023-03-05T23:48:50.090Z,3.14
2023-03-05T23:51:17.660Z,3.07
2023-03-05T23:53:44.874Z,3.16
2023-03-05T23:56:12.137Z,3.26
2023-03-05T23:58:39.538Z,3.32
